»·PEaware :: HYDRA64 KMAF-KABI

HYDRA64 :: KMAF-KABI

FLIGHT INFORMATION

Flight Status: Arrived
Operator: Unknown
More flights by this operator :: More flights under this callsign
Pilot: 47th FTW Laughlin (28783)
Aircraft: BEECH AIRCRAFT T-6A TEXAN
(TEX2)
More flights by this aircraft type
Origin: KMAF Midland Intl
United States
Destination: KABI Abilene Regl
United States
More flights between these airports :: More routes between these airports
Route: MAF V546 BGS V16 ABI
File this flight plan on PilotEdge
Remarks: ILS RWY 35R KABI FOLLOWED BY VECTORS LOC RWY 17R KABI
Altitude:
(Current/Filed)
21,000ft
Speed:
(Current/Filed)
250kts
Departed: 30-Jul-20 12:07 PM
Arrived: 30-Jul-20 12:53 PM
Distance/Time
Traveled:
131nm/0:45
Distance/Time
To Go:
Arrived

Flight Plot

Page will automatically refresh every two minutes.

Flight plan parsing failed; only flown route is shown


Map Options




Map Legend


Flown Route
Filed Route
Departure Airport
Arrival Airport
Navaid (VOR, NDB)
Fix

Horizontal Profiles

Position Reports

Time Latitude Longitude Heading Altitude Ground
Speed
30-Jul-20 11:38 31.939209 -102.207235 175 2875ft 0kts
30-Jul-20 11:39 31.939209 -102.207235 175 2875ft 0kts
30-Jul-20 11:40 31.939209 -102.207235 175 2875ft 0kts
30-Jul-20 11:41 31.939209 -102.207235 175 2875ft 0kts
30-Jul-20 11:42 31.939209 -102.207235 175 2875ft 0kts
30-Jul-20 11:43 31.939209 -102.207235 175 2875ft 0kts
30-Jul-20 11:44 31.939209 -102.207235 175 2875ft 0kts
30-Jul-20 11:45 31.939209 -102.207235 175 2875ft 0kts
30-Jul-20 11:46 31.939209 -102.207235 175 2875ft 0kts
30-Jul-20 11:47 31.939209 -102.207235 175 2875ft 0kts
30-Jul-20 11:48 31.939209 -102.207235 175 2875ft 0kts
30-Jul-20 11:49 31.939209 -102.207235 175 2875ft 0kts
30-Jul-20 11:50 31.939209 -102.207235 175 2875ft 0kts
30-Jul-20 11:51 31.939209 -102.207235 175 2875ft 0kts
30-Jul-20 11:52 31.939209 -102.207235 175 2875ft 0kts
30-Jul-20 11:53 31.939209 -102.207235 175 2875ft 0kts
30-Jul-20 11:54 31.939209 -102.207235 175 2875ft 0kts
30-Jul-20 11:55 31.939209 -102.207235 175 2875ft 0kts
30-Jul-20 11:56 31.939209 -102.207235 175 2875ft 0kts
30-Jul-20 11:57 31.939209 -102.207235 175 2875ft 0kts
30-Jul-20 11:58 31.939209 -102.207235 175 2875ft 0kts
30-Jul-20 11:59 31.939209 -102.207235 175 2875ft 0kts
30-Jul-20 12:00 31.939209 -102.207235 175 2875ft 0kts
30-Jul-20 12:01 31.938984 -102.206687 79 2875ft 9kts
30-Jul-20 12:02 31.938250 -102.203771 90 2875ft 15kts
30-Jul-20 12:03 31.938854 -102.199280 359 2875ft 13kts
30-Jul-20 12:04 31.944003 -102.199594 357 2875ft 23kts
30-Jul-20 12:05 31.946106 -102.198481 86 2875ft 1kts
30-Jul-20 12:06 31.937194 -102.197172 175 3075ft 111kts
30-Jul-20 12:07 31.904216 -102.191254 163 5717ft 127kts
30-Jul-20 12:08 31.903177 -102.164414 8 8174ft 150kts
30-Jul-20 12:09 31.946382 -102.151128 18 10364ft 167kts
30-Jul-20 12:10 31.992137 -102.136591 13 12486ft 179kts
30-Jul-20 12:11 32.040495 -102.121350 13 14448ft 184kts
30-Jul-20 12:13 32.071234 -102.074242 56 16022ft 190kts
30-Jul-20 12:14 32.098203 -102.020734 72 17585ft 198kts
30-Jul-20 12:15 32.128091 -101.966472 52 18725ft 202kts
30-Jul-20 12:16 32.161465 -101.915383 55 20111ft 201kts
30-Jul-20 12:17 32.188998 -101.858630 58 21178ft 210kts
30-Jul-20 12:18 32.221190 -101.787372 62 20924ft 275kts
30-Jul-20 12:19 32.258441 -101.706446 64 21078ft 286kts
30-Jul-20 12:20 32.296551 -101.621762 64 21001ft 296kts
30-Jul-20 12:21 32.338765 -101.538316 52 20950ft 298kts
30-Jul-20 12:22 32.388321 -101.459958 55 21020ft 296kts
30-Jul-20 12:23 32.415979 -101.370376 74 21044ft 301kts
30-Jul-20 12:24 32.429574 -101.274521 80 21048ft 305kts
30-Jul-20 12:25 32.429290 -101.176362 99 21159ft 294kts
30-Jul-20 12:26 32.422604 -101.077891 96 20468ft 313kts
30-Jul-20 12:27 32.413023 -100.980261 96 21039ft 291kts
30-Jul-20 12:28 32.406152 -100.883684 91 21003ft 298kts
30-Jul-20 12:29 32.411748 -100.786114 80 21061ft 296kts
30-Jul-20 12:30 32.425996 -100.689923 80 21291ft 292kts
30-Jul-20 12:30 32.441786 -100.610802 77 21310ft 293kts
30-Jul-20 12:31 32.453811 -100.514634 83 21369ft 296kts
30-Jul-20 12:33 32.456939 -100.398822 89 20955ft 301kts
30-Jul-20 12:33 32.457781 -100.316926 87 21125ft 290kts
30-Jul-20 12:34 32.462722 -100.229913 87 19111ft 250kts
30-Jul-20 12:35 32.466443 -100.148347 88 17302ft 244kts
30-Jul-20 12:36 32.472471 -100.064796 85 15013ft 261kts
30-Jul-20 12:37 32.476132 -99.980063 87 12861ft 269kts
30-Jul-20 12:38 32.478598 -99.893086 84 10612ft 261kts
30-Jul-20 12:39 32.472709 -99.814682 117 8923ft 236kts
30-Jul-20 12:40 32.427881 -99.757548 136 6692ft 237kts
30-Jul-20 12:41 32.384471 -99.705247 135 5111ft 216kts
30-Jul-20 12:42 32.347460 -99.667179 159 5255ft 155kts
30-Jul-20 12:43 32.305688 -99.676553 181 5152ft 161kts
30-Jul-20 12:44 32.258607 -99.675551 168 4345ft 178kts
30-Jul-20 12:45 32.212703 -99.673655 167 4241ft 157kts
30-Jul-20 12:46 32.204261 -99.636109 27 4254ft 153kts
30-Jul-20 12:47 32.239354 -99.658861 313 4157ft 164kts
30-Jul-20 12:48 32.278611 -99.673107 7 3517ft 157kts
30-Jul-20 12:49 32.313314 -99.673992 358 3330ft 116kts
30-Jul-20 12:50 32.345939 -99.675251 358 2682ft 119kts
30-Jul-20 12:51 32.378911 -99.674589 358 2041ft 118kts
30-Jul-20 12:52 32.402056 -99.675245 328 1795ft 20kts
30-Jul-20 12:53 32.403051 -99.675927 326 1795ft 6kts
30-Jul-20 12:54 32.409197 -99.676374 358 1795ft 21kts
30-Jul-20 12:55 32.409768 -99.682542 270 1795ft 32kts
30-Jul-20 12:56 32.413922 -99.682608 24 1795ft 12kts

Navigation Log

Ident Type
Flight plan parsing failed, navigation log unavailable